createdAt,value
2023-03-22T00:01:16.159Z,2.19
2023-03-22T00:03:42.812Z,2.03
2023-03-22T00:06:09.569Z,1.97
2023-03-22T00:08:36.222Z,1.81
2023-03-22T00:11:03.107Z,1.81
2023-03-22T00:13:29.750Z,1.81
2023-03-22T00:15:56.382Z,1.93
2023-03-22T00:18:23.286Z,2.09
2023-03-22T00:20:50.566Z,2.10
2023-03-22T00:23:17.246Z,2.04
2023-03-22T00:25:44.797Z,1.89
2023-03-22T00:28:11.751Z,1.86
2023-03-22T00:30:38.574Z,1.99
2023-03-22T00:33:05.307Z,2.01
2023-03-22T00:35:32.043Z,2.04
2023-03-22T00:37:58.709Z,1.99
2023-03-22T00:40:25.352Z,2.02
2023-03-22T00:42:51.983Z,1.98
2023-03-22T00:45:18.616Z,2.11
2023-03-22T00:47:45.257Z,2.05
2023-03-22T00:50:11.875Z,2.02
2023-03-22T00:52:38.528Z,2.03
2023-03-22T00:55:05.605Z,1.96
2023-03-22T00:57:32.229Z,1.85
2023-03-22T00:59:58.874Z,1.88
2023-03-22T01:02:25.495Z,1.82
2023-03-22T01:04:52.137Z,1.81
2023-03-22T01:07:18.776Z,1.79
2023-03-22T01:09:45.423Z,1.77
2023-03-22T01:12:12.088Z,1.70
2023-03-22T01:14:38.880Z,1.79
2023-03-22T01:17:05.590Z,1.57
2023-03-22T01:19:32.225Z,1.64
2023-03-22T01:21:58.882Z,1.78
2023-03-22T01:24:25.537Z,1.65
2023-03-22T01:26:52.173Z,1.82
2023-03-22T01:29:18.824Z,1.66
2023-03-22T01:31:45.465Z,1.69
2023-03-22T01:34:12.097Z,1.81
2023-03-22T01:36:38.746Z,1.79
2023-03-22T01:39:05.394Z,1.53
2023-03-22T01:41:32.011Z,1.72
2023-03-22T01:44:14.611Z,1.78
2023-03-22T01:46:42.204Z,1.68
2023-03-22T01:49:31.474Z,1.64
2023-03-22T01:52:00.721Z,1.57
2023-03-22T01:54:47.519Z,1.53
2023-03-22T01:57:14.162Z,1.52
2023-03-22T01:59:40.918Z,1.54
2023-03-22T02:02:07.568Z,1.56
2023-03-22T02:04:35.832Z,1.48
2023-03-22T02:07:04.823Z,1.61
2023-03-22T02:09:33.496Z,1.66
2023-03-22T02:12:10.768Z,1.52
2023-03-22T02:15:03.730Z,1.76
2023-03-22T02:17:40.137Z,1.64
2023-03-22T02:20:25.322Z,1.71
2023-03-22T02:23:19.141Z,1.56
2023-03-22T02:26:12.217Z,1.46
2023-03-22T02:28:38.730Z,1.48
2023-03-22T02:31:24.414Z,1.52
2023-03-22T02:34:16.795Z,1.61
2023-03-22T02:37:04.884Z,1.45
2023-03-22T02:39:38.359Z,1.42
2023-03-22T02:42:23.588Z,1.63
2023-03-22T02:45:28.970Z,1.51
2023-03-22T02:48:04.075Z,1.61
2023-03-22T02:50:32.681Z,1.52
2023-03-22T02:53:10.022Z,1.61
2023-03-22T02:55:40.737Z,1.61
2023-03-22T02:58:20.051Z,1.84
2023-03-22T03:00:46.956Z,1.40
2023-03-22T03:03:13.945Z,1.42
2023-03-22T03:05:43.170Z,1.57
2023-03-22T03:08:10.443Z,1.52
2023-03-22T03:10:37.821Z,1.56
2023-03-22T03:13:04.662Z,1.61
2023-03-22T03:15:31.326Z,1.72
2023-03-22T03:18:10.775Z,1.68
2023-03-22T03:20:43.382Z,1.74
2023-03-22T03:23:40.340Z,1.66
2023-03-22T03:26:12.487Z,1.62
2023-03-22T03:28:39.804Z,1.59
2023-03-22T03:31:09.336Z,1.53
2023-03-22T03:33:38.098Z,1.50
2023-03-22T03:36:12.153Z,1.49
2023-03-22T03:38:40.988Z,1.56
2023-03-22T03:41:10.437Z,1.55
2023-03-22T03:43:37.083Z,1.44
2023-03-22T03:46:03.809Z,1.50
2023-03-22T03:48:32.284Z,1.61
2023-03-22T03:50:59.402Z,1.70
2023-03-22T03:53:26.053Z,1.79
2023-03-22T03:55:52.736Z,1.66
2023-03-22T03:58:19.358Z,1.62
2023-03-22T04:00:46.132Z,1.58
2023-03-22T04:03:12.912Z,1.63
2023-03-22T04:05:39.547Z,1.61
2023-03-22T04:08:06.201Z,1.79
2023-03-22T04:10:32.818Z,1.70
2023-03-22T04:12:59.471Z,1.58
2023-03-22T04:15:26.116Z,1.71
2023-03-22T04:17:52.731Z,1.61
2023-03-22T04:20:19.520Z,1.65
2023-03-22T04:22:46.150Z,1.63
2023-03-22T04:25:12.892Z,1.78
2023-03-22T04:27:39.894Z,1.70
2023-03-22T04:30:07.618Z,1.61
2023-03-22T04:32:34.297Z,1.78
2023-03-22T04:35:00.998Z,1.64
2023-03-22T04:37:27.625Z,1.84
2023-03-22T04:39:54.293Z,1.74
2023-03-22T04:42:20.940Z,1.72
2023-03-22T04:44:47.626Z,1.88
2023-03-22T04:47:14.303Z,1.81
2023-03-22T04:49:40.942Z,1.68
2023-03-22T04:52:07.790Z,1.78
2023-03-22T04:54:34.410Z,1.58
2023-03-22T04:57:01.048Z,1.68
2023-03-22T04:59:27.688Z,1.54
2023-03-22T05:01:54.373Z,1.71
2023-03-22T05:04:21.099Z,1.75
2023-03-22T05:06:47.714Z,1.97
2023-03-22T05:09:14.357Z,1.85
2023-03-22T05:11:41.042Z,1.68
2023-03-22T05:14:08.457Z,1.81
2023-03-22T05:16:35.183Z,1.73
2023-03-22T05:19:02.031Z,1.64
2023-03-22T05:21:29.152Z,1.71
2023-03-22T05:23:56.400Z,1.96
2023-03-22T05:26:23.834Z,2.04
2023-03-22T05:28:50.971Z,1.57
2023-03-22T05:31:18.029Z,1.89
2023-03-22T05:33:44.742Z,1.84
2023-03-22T05:36:11.480Z,1.69
2023-03-22T05:38:38.126Z,1.78
2023-03-22T05:41:04.872Z,1.84
2023-03-22T05:43:31.505Z,1.84
2023-03-22T05:45:58.173Z,1.73
2023-03-22T05:48:24.838Z,1.72
2023-03-22T05:50:51.483Z,1.55
2023-03-22T05:53:18.102Z,1.76
2023-03-22T05:55:44.734Z,1.77
2023-03-22T05:58:11.381Z,1.78
2023-03-22T06:00:38.259Z,1.79
2023-03-22T06:03:05.035Z,1.88
2023-03-22T06:05:31.728Z,1.95
2023-03-22T06:07:58.816Z,2.06
2023-03-22T06:10:25.449Z,1.95
2023-03-22T06:12:52.446Z,1.92
2023-03-22T06:15:19.117Z,1.95
2023-03-22T06:17:45.874Z,1.94
2023-03-22T06:20:13.113Z,2.15
2023-03-22T06:22:40.162Z,2.05
2023-03-22T06:25:07.546Z,2.05
2023-03-22T06:27:34.164Z,2.22
2023-03-22T06:30:00.785Z,2.18
2023-03-22T06:32:27.448Z,2.08
2023-03-22T06:34:54.553Z,1.99
2023-03-22T06:37:22.455Z,2.19
2023-03-22T06:39:49.111Z,2.06
2023-03-22T06:42:15.751Z,2.01
2023-03-22T06:44:42.393Z,2.11
2023-03-22T06:47:09.027Z,2.06
2023-03-22T06:49:35.699Z,2.01
2023-03-22T06:52:02.326Z,2.05
2023-03-22T06:54:29.015Z,2.03
2023-03-22T06:56:55.681Z,2.29
2023-03-22T06:59:22.342Z,2.18
2023-03-22T07:01:49.002Z,1.90
2023-03-22T07:04:15.951Z,1.97
2023-03-22T07:06:42.679Z,2.14
2023-03-22T07:09:09.324Z,2.05
2023-03-22T07:11:35.972Z,2.27
2023-03-22T07:14:02.652Z,1.92
2023-03-22T07:16:29.722Z,1.94
2023-03-22T07:18:56.414Z,1.80
2023-03-22T07:21:23.071Z,2.03
2023-03-22T07:23:49.724Z,1.97
2023-03-22T07:26:16.368Z,2.01
2023-03-22T07:28:43.021Z,1.72
2023-03-22T07:31:10.062Z,1.48
2023-03-22T07:33:36.771Z,1.69
2023-03-22T07:36:04.729Z,1.31
2023-03-22T07:38:31.382Z,1.55
2023-03-22T07:40:58.148Z,1.36
2023-03-22T07:43:24.820Z,1.58
2023-03-22T07:45:51.713Z,1.39
2023-03-22T07:48:19.912Z,1.31
2023-03-22T07:50:47.348Z,1.48
2023-03-22T07:53:14.009Z,1.52
2023-03-22T07:55:40.651Z,1.65
2023-03-22T07:58:07.313Z,1.61
2023-03-22T08:00:33.987Z,1.78
2023-03-22T08:03:01.289Z,1.76
2023-03-22T08:05:27.952Z,1.88
2023-03-22T08:07:54.614Z,1.63
2023-03-22T08:10:21.268Z,1.51
2023-03-22T08:12:47.934Z,1.50
2023-03-22T08:15:14.670Z,1.81
2023-03-22T08:17:41.323Z,1.95
2023-03-22T08:20:08.739Z,1.89
2023-03-22T08:22:36.235Z,1.90
2023-03-22T08:25:03.862Z,2.57
2023-03-22T08:27:30.530Z,3.38
2023-03-22T08:29:57.230Z,3.67
2023-03-22T08:32:23.920Z,3.93
2023-03-22T08:34:50.559Z,3.80
2023-03-22T08:37:17.256Z,3.71
2023-03-22T08:39:43.970Z,4.20
2023-03-22T08:42:10.622Z,4.42
2023-03-22T08:44:37.265Z,3.67
2023-03-22T08:47:03.969Z,3.49
2023-03-22T08:49:30.626Z,3.52
2023-03-22T08:51:57.293Z,4.15
2023-03-22T08:54:23.998Z,4.40
2023-03-22T08:56:50.633Z,4.26
2023-03-22T08:59:17.311Z,4.06
2023-03-22T09:01:44.016Z,4.37
2023-03-22T09:04:10.962Z,4.51
2023-03-22T09:06:37.695Z,4.41
2023-03-22T09:09:04.321Z,3.97
2023-03-22T09:11:31.064Z,4.20
2023-03-22T09:13:57.733Z,3.76
2023-03-22T09:16:24.500Z,3.65
2023-03-22T09:18:54.217Z,3.47
2023-03-22T09:21:20.871Z,3.23
2023-03-22T09:23:47.519Z,2.98
2023-03-22T09:26:14.209Z,3.06
2023-03-22T09:28:41.191Z,3.01
2023-03-22T09:31:08.716Z,2.87
2023-03-22T09:33:38.544Z,3.10
2023-03-22T09:36:05.297Z,3.43
2023-03-22T09:38:31.981Z,3.59
2023-03-22T09:41:02.055Z,3.15
2023-03-22T09:43:31.510Z,2.95
2023-03-22T09:46:01.464Z,3.12
2023-03-22T09:48:33.478Z,3.32
2023-03-22T09:51:00.604Z,3.37
2023-03-22T09:53:29.693Z,3.07
2023-03-22T09:56:09.341Z,3.45
2023-03-22T09:58:46.483Z,3.89
2023-03-22T10:01:26.688Z,4.44
2023-03-22T10:04:03.309Z,4.53
2023-03-22T10:06:30.030Z,4.14
2023-03-22T10:09:07.879Z,3.75
2023-03-22T10:11:46.688Z,3.56
2023-03-22T10:14:39.492Z,3.47
2023-03-22T10:17:09.578Z,3.21
2023-03-22T10:19:43.666Z,3.50
2023-03-22T10:22:10.346Z,3.36
2023-03-22T10:24:39.848Z,3.40
2023-03-22T10:27:17.337Z,3.20
2023-03-22T10:29:46.558Z,3.50
2023-03-22T10:32:14.206Z,3.54
2023-03-22T10:34:40.861Z,3.65
2023-03-22T10:37:07.540Z,3.45
2023-03-22T10:39:34.114Z,3.45
2023-03-22T10:42:02.763Z,3.51
2023-03-22T10:44:31.030Z,3.49
2023-03-22T10:46:59.020Z,3.49
2023-03-22T10:49:29.435Z,4.00
2023-03-22T10:52:20.939Z,3.82
2023-03-22T10:54:47.594Z,4.06
2023-03-22T10:57:16.330Z,4.12
2023-03-22T10:59:50.700Z,4.20
2023-03-22T11:02:22.339Z,4.10
2023-03-22T11:05:15.567Z,4.09
2023-03-22T11:07:45.296Z,3.68
2023-03-22T11:10:31.386Z,6.58
2023-03-22T11:13:06.982Z,3.62
2023-03-22T11:15:38.661Z,3.78
2023-03-22T11:18:14.713Z,3.76
2023-03-22T11:20:44.614Z,4.02
2023-03-22T11:23:12.449Z,4.28
2023-03-22T11:25:45.302Z,3.99
2023-03-22T11:28:48.036Z,4.21
2023-03-22T11:31:18.249Z,4.24
2023-03-22T11:33:53.905Z,3.94
2023-03-22T11:36:21.694Z,3.80
2023-03-22T11:38:48.980Z,3.71
2023-03-22T11:41:26.614Z,3.60
2023-03-22T11:43:54.716Z,3.35
2023-03-22T11:46:21.489Z,3.15
2023-03-22T11:48:51.825Z,3.02
2023-03-22T11:51:26.834Z,3.05
2023-03-22T11:53:56.941Z,3.38
2023-03-22T11:56:29.993Z,3.63
2023-03-22T11:58:58.996Z,3.66
2023-03-22T12:01:49.359Z,3.60
2023-03-22T12:04:20.490Z,3.52
2023-03-22T12:06:47.188Z,3.54
2023-03-22T12:09:26.797Z,3.34
2023-03-22T12:11:55.213Z,3.49
2023-03-22T12:14:29.384Z,3.16
2023-03-22T12:17:06.329Z,2.82
2023-03-22T12:19:42.013Z,4.36
2023-03-22T12:22:13.349Z,3.19
2023-03-22T12:24:40.807Z,3.02
2023-03-22T12:27:34.307Z,3.01
2023-03-22T12:30:06.779Z,3.34
2023-03-22T12:32:38.820Z,3.33
2023-03-22T12:35:16.595Z,3.08
2023-03-22T12:37:43.741Z,3.32
2023-03-22T12:40:29.259Z,3.23
2023-03-22T12:43:16.088Z,3.44
2023-03-22T12:45:44.732Z,3.17
2023-03-22T12:48:41.161Z,3.05
2023-03-22T12:51:09.059Z,3.25
2023-03-22T12:53:38.446Z,3.41
2023-03-22T12:56:05.301Z,3.13
2023-03-22T12:58:31.993Z,3.10
2023-03-22T13:01:01.654Z,2.93
2023-03-22T13:03:30.496Z,2.94
2023-03-22T13:06:05.077Z,2.96
2023-03-22T13:09:21.340Z,3.09
2023-03-22T13:12:15.777Z,2.91
2023-03-22T13:14:54.493Z,2.56
2023-03-22T13:17:24.393Z,2.77
2023-03-22T13:20:00.906Z,2.61
2023-03-22T13:22:28.959Z,2.96
2023-03-22T13:25:10.761Z,2.43
2023-03-22T13:27:42.099Z,2.47
2023-03-22T13:30:26.826Z,2.68
2023-03-22T13:33:00.821Z,2.67
2023-03-22T13:35:40.308Z,2.60
2023-03-22T13:38:09.037Z,2.55
2023-03-22T13:40:58.598Z,2.31
2023-03-22T13:43:43.434Z,2.51
2023-03-22T13:46:28.312Z,2.42
2023-03-22T13:49:26.701Z,2.44
2023-03-22T13:51:53.336Z,2.41
2023-03-22T13:54:22.978Z,2.27
2023-03-22T13:56:54.630Z,2.33
2023-03-22T13:59:27.624Z,2.14
2023-03-22T14:02:19.755Z,2.19
2023-03-22T14:04:48.903Z,2.11
2023-03-22T14:07:27.276Z,1.88
2023-03-22T14:09:59.065Z,2.03
2023-03-22T14:12:32.278Z,2.12
2023-03-22T14:15:01.643Z,2.00
2023-03-22T14:17:39.207Z,2.05
2023-03-22T14:20:06.376Z,2.12
